Time;durP1;ratioP1;P1;durP2;ratioP2;P2;SDS_P1;SDS_P2;PMS_P1;PMS_P2;Temp;Humidity;BMP_temperature;BMP_pressure;BME280_temperature;BME280_humidity;BME280_pressure;Samples;Min_cycle;Max_cycle;Signal;HPM_P1;HPM_P2
2024/04/09 00:02:26;;;;;;;1.90;1.20;;;;;;;12.72;50.20;101385.77;107596;1254;108699;-63
2024/04/09 00:04:54;;;;;;;7.50;2.20;;;;;;;12.69;50.29;101384.79;107644;1250;108059;-64
2024/04/09 00:07:23;;;;;;;3.10;1.60;;;;;;;12.66;50.41;101389.44;107759;1250;100643;-63
2024/04/09 00:09:52;;;;;;;7.50;1.60;;;;;;;12.64;50.40;101391.48;107589;1251;100526;-63
2024/04/09 00:12:21;;;;;;;3.80;1.60;;;;;;;12.63;50.95;101396.44;107737;1251;114356;-63
2024/04/09 00:14:50;;;;;;;5.80;1.90;;;;;;;12.59;50.86;101396.98;107536;1251;108366;-63
2024/04/09 00:17:25;;;;;;;3.20;1.70;;;;;;;12.57;51.05;101396.07;107531;1251;107707;-63
2024/04/09 00:19:53;;;;;;;4.10;1.90;;;;;;;12.50;51.51;101394.98;107549;1251;100531;-63
2024/04/09 00:22:25;;;;;;;4.60;1.80;;;;;;;12.46;51.19;101389.23;107574;1252;101176;-62
2024/04/09 00:24:53;;;;;;;7.30;1.70;;;;;;;12.44;51.19;101389.44;107604;1254;114936;-64
2024/04/09 00:27:21;;;;;;;4.90;1.40;;;;;;;12.43;51.14;101391.33;107474;1252;108542;-63
2024/04/09 00:29:50;;;;;;;5.70;1.80;;;;;;;12.41;51.40;101392.23;107567;1254;107326;-62
2024/04/09 00:32:18;;;;;;;7.50;2.10;;;;;;;12.39;51.55;101399.40;107534;1253;100504;-65
2024/04/09 00:34:46;;;;;;;5.20;1.80;;;;;;;12.33;51.61;101391.08;107589;1254;101075;-64
2024/04/09 00:37:15;;;;;;;7.00;2.00;;;;;;;12.27;51.72;101392.31;107587;1251;114166;-63
2024/04/09 00:39:43;;;;;;;4.40;1.60;;;;;;;12.20;52.29;101391.11;107577;1251;108294;-64
2024/04/09 00:42:12;;;;;;;2.80;1.30;;;;;;;12.15;52.81;101392.63;107470;1251;107598;-62
2024/04/09 00:44:40;;;;;;;4.20;1.70;;;;;;;12.10;53.29;101389.96;107524;1251;100639;-63
2024/04/09 00:47:09;;;;;;;3.70;1.50;;;;;;;12.05;53.64;101387.90;107527;1254;100420;-62
2024/04/09 00:49:38;;;;;;;11.30;2.20;;;;;;;12.01;54.12;101386.22;107528;1251;114200;-62
2024/04/09 00:52:07;;;;;;;6.90;1.60;;;;;;;11.99;54.24;101384.41;107516;1253;108012;-63
2024/04/09 00:54:38;;;;;;;3.70;1.80;;;;;;;11.96;54.01;101387.34;107408;1254;108050;-63
2024/04/09 00:57:07;;;;;;;10.10;1.70;;;;;;;11.94;54.15;101384.98;107542;1254;101095;-62
2024/04/09 00:59:36;;;;;;;9.90;1.60;;;;;;;11.92;54.41;101389.48;107589;1252;101184;-62
2024/04/09 01:02:04;;;;;;;9.90;1.90;;;;;;;11.89;54.39;101388.31;107536;1254;113527;-63
2024/04/09 01:04:32;;;;;;;7.50;1.70;;;;;;;11.86;54.48;101391.02;107613;1252;109014;-61
2024/04/09 01:07:01;;;;;;;3.30;1.50;;;;;;;11.81;54.75;101391.12;107378;1256;107842;-62
2024/04/09 01:09:29;;;;;;;10.70;1.90;;;;;;;11.76;54.90;101394.58;107363;1252;100648;-63
2024/04/09 01:11:57;;;;;;;10.80;1.50;;;;;;;11.75;55.22;101392.86;107307;1253;100522;-63
2024/04/09 01:14:25;;;;;;;7.90;1.70;;;;;;;11.73;55.31;101393.02;107500;1252;114622;-63
2024/04/09 01:16:57;;;;;;;12.60;2.10;;;;;;;11.70;55.52;101394.91;107530;1256;108210;-62
2024/04/09 01:19:25;;;;;;;4.20;1.70;;;;;;;11.67;55.72;101386.95;107589;1254;107677;-62
2024/04/09 01:21:53;;;;;;;12.50;2.00;;;;;;;11.63;55.61;101390.85;107578;1251;100563;-63
2024/04/09 01:24:24;;;;;;;15.80;2.10;;;;;;;11.60;55.49;101389.12;107583;1251;100674;-63
2024/04/09 01:26:52;;;;;;;9.20;2.00;;;;;;;11.57;55.53;101383.00;107587;1253;113854;-63
2024/04/09 01:29:23;;;;;;;6.40;2.10;;;;;;;11.58;55.40;101386.17;107556;1253;107629;-62
2024/04/09 01:31:52;;;;;;;4.60;1.60;;;;;;;11.58;55.27;101386.00;107418;1257;107179;-63
2024/04/09 01:34:21;;;;;;;19.40;1.70;;;;;;;11.58;55.22;101388.52;107550;1254;100523;-63
2024/04/09 01:36:49;;;;;;;6.00;2.10;;;;;;;11.58;55.14;101391.74;107571;1254;100862;-63
2024/04/09 01:39:18;;;;;;;7.30;2.10;;;;;;;11.56;55.18;101387.44;107553;1253;114044;-62
2024/04/09 01:41:46;;;;;;;4.30;1.80;;;;;;;11.54;55.01;101385.80;107572;1253;107811;-62
2024/04/09 01:44:15;;;;;;;3.60;1.70;;;;;;;11.53;55.06;101379.41;107528;1254;107811;-62
2024/04/09 01:46:43;;;;;;;3.60;1.50;;;;;;;11.52;54.93;101375.15;107567;1254;100583;-64
2024/04/09 01:49:11;;;;;;;9.70;3.60;;;;;;;11.51;54.77;101376.51;107585;1252;100523;-63
2024/04/09 01:51:39;;;;;;;10.50;2.00;;;;;;;11.50;54.92;101379.31;107599;1251;114925;-63
2024/04/09 01:54:07;;;;;;;11.90;1.50;;;;;;;11.50;54.68;101378.47;107539;1251;107950;-62
2024/04/09 01:56:36;;;;;;;30.20;2.30;;;;;;;11.49;54.70;101385.72;107568;1251;108555;-61
2024/04/09 01:59:05;;;;;;;5.30;1.90;;;;;;;11.50;54.53;101382.23;107530;1251;100635;-61
2024/04/09 02:01:35;;;;;;;8.40;2.10;;;;;;;11.51;54.59;101385.49;107561;1251;102380;-62
2024/04/09 02:04:03;;;;;;;3.80;1.70;;;;;;;11.51;54.38;101386.04;107544;1251;113325;-63
2024/04/09 02:06:32;;;;;;;20.30;1.90;;;;;;;11.51;54.43;101384.27;107601;1251;108736;-63
2024/04/09 02:09:00;;;;;;;8.30;1.60;;;;;;;11.49;54.39;101384.08;107507;1253;107857;-64
2024/04/09 02:11:28;;;;;;;6.30;1.80;;;;;;;11.48;54.44;101386.30;107575;1254;100679;-62
2024/04/09 02:13:58;;;;;;;7.70;2.10;;;;;;;11.47;54.34;101384.42;107504;1251;101177;-62
2024/04/09 02:16:26;;;;;;;3.50;1.60;;;;;;;11.46;54.51;101379.66;107642;1251;114595;-63
2024/04/09 02:18:54;;;;;;;10.10;1.80;;;;;;;11.44;54.42;101378.73;107535;1251;107818;-63
2024/04/09 02:21:23;;;;;;;7.80;1.50;;;;;;;11.41;55.56;101375.22;107580;1253;107819;-62
2024/04/09 02:23:51;;;;;;;7.20;1.70;;;;;;;11.31;55.63;101381.55;107530;1251;101933;-62
2024/04/09 02:26:19;;;;;;;3.70;1.50;;;;;;;11.24;56.06;101379.45;107592;1252;100526;-62
2024/04/09 02:28:48;;;;;;;8.70;1.90;;;;;;;11.19;56.07;101382.55;107613;1253;114721;-63
2024/04/09 02:31:16;;;;;;;3.90;1.60;;;;;;;11.15;56.33;101383.62;107586;1255;108077;-62
2024/04/09 02:33:44;;;;;;;4.00;1.60;;;;;;;11.11;56.61;101389.67;107553;1252;108626;-62
2024/04/09 02:36:12;;;;;;;5.60;1.60;;;;;;;11.05;56.79;101384.60;107567;1251;100504;-63
2024/04/09 02:38:40;;;;;;;7.50;1.90;;;;;;;11.01;57.10;101383.86;107579;1254;100525;-62
2024/04/09 02:41:13;;;;;;;8.80;1.80;;;;;;;11.00;57.05;101386.11;107582;1251;114046;-62
2024/04/09 02:43:42;;;;;;;4.60;1.80;;;;;;;10.98;57.41;101381.56;107556;1251;108563;-62
2024/04/09 02:46:10;;;;;;;9.40;1.80;;;;;;;10.96;57.54;101388.36;107559;1251;109185;-62
2024/04/09 02:48:38;;;;;;;10.30;2.90;;;;;;;10.93;57.78;101386.08;107548;1251;100762;-62
2024/04/09 02:51:06;;;;;;;4.50;1.60;;;;;;;10.90;57.84;101387.73;107563;1251;101205;-63
2024/04/09 02:53:35;;;;;;;10.00;2.10;;;;;;;10.90;58.02;101386.88;107574;1251;114108;-63
2024/04/09 02:56:08;;;;;;;6.60;1.90;;;;;;;10.87;58.08;101386.91;107580;1251;107999;-61
2024/04/09 02:58:36;;;;;;;11.40;2.00;;;;;;;10.86;58.20;101391.88;107600;1251;107820;-63
2024/04/09 03:01:07;;;;;;;6.30;2.10;;;;;;;10.84;58.36;101393.27;107570;1251;100599;-62
2024/04/09 03:03:36;;;;;;;4.40;1.60;;;;;;;10.84;58.52;101398.66;107581;1251;102192;-63
2024/04/09 03:06:13;;;;;;;2.90;1.60;;;;;;;10.84;58.54;101395.27;107612;1251;113484;-62
2024/04/09 03:08:43;;;;;;;7.90;2.10;;;;;;;10.83;58.66;101399.27;107616;1254;107364;-62
2024/04/09 03:11:16;;;;;;;9.20;1.80;;;;;;;10.80;58.59;101399.69;107605;1251;107301;-63
2024/04/09 03:13:49;;;;;;;12.60;1.90;;;;;;;10.77;58.82;101396.48;107590;1251;100551;-63
2024/04/09 03:16:22;;;;;;;;;;;;;;;10.77;59.46;101401.73;107489;1254;100600;-63
2024/04/09 03:18:53;;;;;;;8.80;1.90;;;;;;;10.76;59.24;101402.72;107373;1251;114515;-63
2024/04/09 03:21:21;;;;;;;8.10;2.50;;;;;;;10.75;59.28;101396.14;107473;1254;107153;-62
2024/04/09 03:23:50;;;;;;;10.60;2.80;;;;;;;10.73;59.23;101399.19;107535;1251;108022;-62
2024/04/09 03:26:18;;;;;;;8.10;2.40;;;;;;;10.71;59.64;101395.04;107568;1254;101153;-63
2024/04/09 03:28:47;;;;;;;33.10;3.10;;;;;;;10.69;59.59;101400.00;107556;1251;100571;-64
2024/04/09 03:31:15;;;;;;;18.50;2.10;;;;;;;10.66;59.87;101401.31;107577;1250;113987;-62
2024/04/09 03:33:43;;;;;;;22.70;2.60;;;;;;;10.64;59.87;101404.66;107581;1250;107782;-63
2024/04/09 03:36:11;;;;;;;18.00;2.40;;;;;;;10.63;59.65;101401.48;107565;1251;108211;-62
2024/04/09 03:38:39;;;;;;;12.70;2.10;;;;;;;10.63;59.70;101404.08;107524;1254;100524;-63
2024/04/09 03:41:07;;;;;;;19.30;3.40;;;;;;;10.61;59.84;101411.39;107555;1253;100419;-61
2024/04/09 03:43:36;;;;;;;19.10;2.40;;;;;;;10.60;59.81;101407.69;107557;1254;115742;-63
2024/04/09 03:46:08;;;;;;;20.70;3.70;;;;;;;10.60;59.66;101409.88;107602;1251;108244;-62
2024/04/09 03:48:43;;;;;;;16.50;2.90;;;;;;;10.57;59.72;101406.84;107574;1251;108429;-62
2024/04/09 03:51:19;;;;;;;22.20;3.10;;;;;;;10.55;59.65;101407.35;107601;1251;100610;-61
2024/04/09 03:53:47;;;;;;;35.00;3.20;;;;;;;10.52;59.91;101407.60;107584;1251;101051;-62
2024/04/09 03:56:16;;;;;;;12.70;2.30;;;;;;;10.50;59.96;101407.95;107653;1251;114496;-61
2024/04/09 03:58:47;;;;;;;22.30;4.00;;;;;;;10.49;60.06;101414.63;107603;1251;108868;-63
2024/04/09 04:01:16;;;;;;;26.50;4.10;;;;;;;10.48;60.10;101415.94;107578;1251;107339;-62
2024/04/09 04:03:46;;;;;;;29.80;13.30;;;;;;;10.48;60.04;101418.49;107619;1251;100532;-62
2024/04/09 04:06:15;;;;;;;34.10;5.70;;;;;;;10.48;60.04;101419.77;107597;1252;100407;-64
2024/04/09 04:08:44;;;;;;;19.60;3.50;;;;;;;10.47;60.02;101419.48;107575;1250;113350;-62
2024/04/09 04:11:16;;;;;;;10.80;2.80;;;;;;;10.46;60.07;101422.73;107629;1251;108478;-63
2024/04/09 04:13:45;;;;;;;12.00;2.90;;;;;;;10.47;60.12;101416.21;107585;1251;107246;-64
2024/04/09 04:16:15;;;;;;;15.90;3.20;;;;;;;10.46;60.19;101428.30;107535;1251;100575;-63
2024/04/09 04:18:45;;;;;;;15.10;2.80;;;;;;;10.45;60.19;101428.25;107605;1251;101064;-63
2024/04/09 04:21:18;;;;;;;15.90;3.40;;;;;;;10.44;60.29;101431.20;107588;1251;114132;-62
2024/04/09 04:23:54;;;;;;;9.20;3.70;;;;;;;10.42;60.26;101436.70;107459;1251;108392;-62
2024/04/09 04:26:25;;;;;;;19.20;3.20;;;;;;;10.41;60.39;101433.00;107541;1251;107686;-64
2024/04/09 04:28:54;;;;;;;22.90;3.80;;;;;;;10.41;60.58;101438.97;107495;1251;100540;-63
2024/04/09 04:31:25;;;;;;;7.10;1.90;;;;;;;10.42;60.42;101438.16;107668;1255;100408;-62
2024/04/09 04:33:54;;;;;;;22.40;3.90;;;;;;;10.43;60.74;101438.78;107608;1254;115062;-62
2024/04/09 04:36:22;;;;;;;24.60;3.60;;;;;;;10.47;61.17;101437.77;107559;1255;108486;-62
2024/04/09 04:38:52;;;;;;;14.50;3.10;;;;;;;10.51;61.03;101437.48;107536;1251;108299;-62
2024/04/09 04:41:20;;;;;;;15.90;2.50;;;;;;;10.55;60.99;101437.90;107537;1254;100526;-62
2024/04/09 04:43:50;;;;;;;17.20;3.20;;;;;;;10.60;61.38;101435.66;107608;1251;100657;-62
2024/04/09 04:46:18;;;;;;;23.00;2.90;;;;;;;10.67;61.31;101438.56;107610;1252;113694;-62
2024/04/09 04:48:46;;;;;;;21.00;3.20;;;;;;;10.73;61.27;101438.79;107570;1254;107590;-62
2024/04/09 04:51:14;;;;;;;33.40;3.50;;;;;;;10.78;61.24;101438.95;107579;1253;108219;-63
2024/04/09 04:53:42;;;;;;;18.20;4.20;;;;;;;10.83;61.36;101431.39;107558;1251;100528;-63
2024/04/09 04:56:11;;;;;;;35.40;8.20;;;;;;;10.87;61.17;101433.71;107643;1251;100398;-63
2024/04/09 04:58:39;;;;;;;37.30;16.00;;;;;;;10.93;61.30;101430.42;107550;1251;114556;-63
2024/04/09 05:01:07;;;;;;;41.70;5.80;;;;;;;11.00;61.38;101431.88;107566;1250;108491;-62
2024/04/09 05:03:36;;;;;;;29.00;6.70;;;;;;;11.07;61.54;101430.16;107586;1250;107038;-64
2024/04/09 05:06:07;;;;;;;20.60;4.00;;;;;;;11.16;61.94;101433.27;107528;1250;100583;-63
2024/04/09 05:08:36;;;;;;;24.80;4.10;;;;;;;11.24;61.88;101435.80;107585;1250;100513;-63
2024/04/09 05:11:10;;;;;;;8.60;3.20;;;;;;;11.34;62.07;101432.67;107618;1251;114070;-63
2024/04/09 05:13:39;;;;;;;21.10;3.80;;;;;;;11.44;61.83;101436.95;107571;1250;108085;-63
2024/04/09 05:16:08;;;;;;;24.20;4.10;;;;;;;11.53;62.00;101435.08;107601;1251;108843;-64
2024/04/09 05:18:36;;;;;;;7.00;2.60;;;;;;;11.65;62.12;101437.73;107602;1251;101080;-64
2024/04/09 05:21:04;;;;;;;15.80;3.30;;;;;;;11.77;62.09;101439.99;107598;1251;100433;-63
2024/04/09 05:23:33;;;;;;;15.70;3.10;;;;;;;11.86;61.90;101435.78;107522;1251;114599;-62
2024/04/09 05:26:01;;;;;;;13.70;3.50;;;;;;;11.97;61.73;101440.67;107493;1253;107737;-63
2024/04/09 05:28:29;;;;;;;10.90;2.80;;;;;;;12.09;61.59;101439.86;107438;1251;108487;-63
2024/04/09 05:30:57;;;;;;;14.70;3.30;;;;;;;12.21;61.80;101438.36;107538;1251;100548;-63
2024/04/09 05:33:25;;;;;;;19.90;3.30;;;;;;;12.33;61.76;101432.84;107543;1251;101163;-63
2024/04/09 05:35:54;;;;;;;37.20;6.60;;;;;;;12.46;61.67;101434.27;107596;1251;117374;-63
2024/04/09 05:38:23;;;;;;;23.90;3.90;;;;;;;12.57;61.53;101435.27;107557;1254;107896;-62
2024/04/09 05:40:58;;;;;;;10.10;2.90;;;;;;;12.69;61.22;101440.73;107578;1254;107624;-64
2024/04/09 05:43:26;;;;;;;24.50;4.40;;;;;;;12.79;61.03;101443.09;107608;1253;100520;-63
2024/04/09 05:45:54;;;;;;;24.60;3.90;;;;;;;12.90;61.14;101439.08;107563;1253;101135;-62
2024/04/09 05:48:23;;;;;;;29.00;4.60;;;;;;;13.00;60.96;101437.84;107597;1253;114344;-63
2024/04/09 05:50:51;;;;;;;19.00;4.00;;;;;;;13.09;60.67;101435.38;107617;1254;108317;-64
2024/04/09 05:53:19;;;;;;;31.00;4.10;;;;;;;13.19;60.61;101433.67;107524;1254;109299;-63
2024/04/09 05:55:55;;;;;;;22.30;4.70;;;;;;;13.27;60.54;101436.38;107607;1255;100621;-64
2024/04/09 05:58:23;;;;;;;13.50;3.70;;;;;;;13.37;60.47;101433.13;107588;1252;101032;-64
2024/04/09 06:00:53;;;;;;;29.70;3.70;;;;;;;13.47;60.32;101431.91;107620;1252;114095;-64
2024/04/09 06:03:22;;;;;;;16.20;4.00;;;;;;;13.58;60.03;101432.74;107544;1258;108783;-63
2024/04/09 06:05:51;;;;;;;24.10;3.90;;;;;;;13.65;59.88;101436.21;107612;1251;106839;-63
2024/04/09 06:08:19;;;;;;;14.90;4.20;;;;;;;13.72;59.70;101440.83;107587;1251;100426;-63
2024/04/09 06:10:48;;;;;;;19.70;4.70;;;;;;;13.79;59.94;101441.40;107529;1253;100411;-64
2024/04/09 06:13:17;;;;;;;15.40;4.00;;;;;;;13.88;59.86;101443.29;107536;1254;114011;-64
2024/04/09 06:15:45;;;;;;;20.80;4.10;;;;;;;13.96;59.68;101448.16;107552;1254;107871;-63
2024/04/09 06:18:14;;;;;;;32.10;5.10;;;;;;;14.05;59.44;101448.21;107508;1255;107322;-63
2024/04/09 06:20:45;;;;;;;21.10;3.70;;;;;;;14.16;59.09;101447.83;107630;1254;100547;-62
2024/04/09 06:23:13;;;;;;;10.20;3.40;;;;;;;14.25;58.98;101444.11;107670;1253;101064;-63
2024/04/09 06:25:53;;;;;;;11.30;3.60;;;;;;;14.32;58.86;101445.89;107439;1251;114371;-63
2024/04/09 06:28:21;;;;;;;11.30;4.00;;;;;;;14.42;58.82;101445.88;107470;1252;109152;-64
2024/04/09 06:30:50;;;;;;;18.30;4.00;;;;;;;14.52;58.75;101445.66;107385;1254;108081;-64
2024/04/09 06:33:19;;;;;;;10.90;3.50;;;;;;;14.62;58.55;101447.31;107435;1253;100501;-64
2024/04/09 06:35:47;;;;;;;17.60;3.70;;;;;;;14.72;58.30;101449.08;107446;1254;100431;-64
2024/04/09 06:38:19;;;;;;;9.70;3.00;;;;;;;14.80;58.01;101451.41;107463;1254;114691;-63
2024/04/09 06:40:48;;;;;;;7.70;4.20;;;;;;;14.87;57.87;101449.79;107474;1254;108194;-63
2024/04/09 06:43:16;;;;;;;22.40;3.50;;;;;;;14.96;57.80;101449.36;107409;1254;108129;-62
2024/04/09 06:45:44;;;;;;;20.80;3.60;;;;;;;15.07;57.60;101448.05;107429;1253;100614;-62
2024/04/09 06:48:12;;;;;;;16.20;2.90;;;;;;;15.19;57.50;101450.20;107442;1254;100561;-62
2024/04/09 06:50:42;;;;;;;9.40;2.60;;;;;;;15.31;57.22;101444.80;107450;1253;114336;-62
2024/04/09 06:53:10;;;;;;;20.20;3.00;;;;;;;15.45;57.16;101448.33;107470;1250;108338;-63
2024/04/09 06:55:38;;;;;;;14.30;2.80;;;;;;;15.58;57.01;101450.30;107515;1251;108555;-64
2024/04/09 06:58:06;;;;;;;6.70;2.20;;;;;;;15.71;55.90;101450.29;107441;1254;100743;-63
2024/04/09 07:00:34;;;;;;;7.50;2.50;;;;;;;15.87;54.05;101449.84;107539;1254;100530;-64
2024/04/09 07:03:05;;;;;;;11.00;2.30;;;;;;;16.11;53.17;101447.59;107497;1254;114265;-63
2024/04/09 07:05:33;;;;;;;10.60;2.30;;;;;;;16.33;52.48;101449.03;107617;1252;107278;-63
2024/04/09 07:08:01;;;;;;;11.40;1.70;;;;;;;16.50;51.54;101446.42;107453;1251;108226;-63
2024/04/09 07:10:34;;;;;;;4.30;1.60;;;;;;;16.67;49.66;101450.23;107480;1251;100508;-64
2024/04/09 07:13:02;;;;;;;8.10;1.80;;;;;;;16.84;49.97;101454.09;107414;1251;101880;-62
2024/04/09 07:15:30;;;;;;;10.10;2.10;;;;;;;16.97;48.69;101454.89;107588;1251;114309;-64
2024/04/09 07:17:58;;;;;;;8.30;1.50;;;;;;;17.13;47.16;101460.92;107505;1251;108067;-63
2024/04/09 07:20:26;;;;;;;7.80;2.10;;;;;;;17.24;46.57;101449.40;107439;1251;108655;-63
2024/04/09 07:22:55;;;;;;;7.60;2.10;;;;;;;17.34;47.21;101447.80;107445;1251;100526;-63
2024/04/09 07:25:24;;;;;;;8.80;2.10;;;;;;;17.45;46.69;101449.13;107601;1251;100509;-63
2024/04/09 07:27:52;;;;;;;12.80;1.90;;;;;;;17.56;46.37;101447.43;107550;1254;113429;-63
2024/04/09 07:30:21;;;;;;;16.20;2.00;;;;;;;17.73;44.63;101456.71;107478;1254;107390;-63
2024/04/09 07:32:49;;;;;;;6.00;1.90;;;;;;;17.86;42.99;101447.46;107463;1251;108188;-63
2024/04/09 07:35:17;;;;;;;7.60;2.50;;;;;;;17.98;42.65;101439.15;107501;1251;100532;-63
2024/04/09 07:37:45;;;;;;;14.30;2.50;;;;;;;18.14;42.28;101447.95;107443;1254;101132;-63
2024/04/09 07:40:14;;;;;;;5.50;1.40;;;;;;;18.28;42.75;101447.61;107496;1254;114134;-63
2024/04/09 07:42:42;;;;;;;8.70;2.90;;;;;;;18.41;42.75;101444.40;107446;1253;108399;-63
2024/04/09 07:45:10;;;;;;;8.40;2.50;;;;;;;18.58;42.86;101443.97;107403;1256;108040;-62
2024/04/09 07:47:40;;;;;;;13.70;2.50;;;;;;;18.75;42.25;101450.58;107411;1254;100536;-63
2024/04/09 07:50:11;;;;;;;10.90;2.40;;;;;;;18.86;42.05;101452.60;107520;1254;100497;-63
2024/04/09 07:52:39;;;;;;;10.10;1.90;;;;;;;18.97;42.06;101447.59;107473;1254;114516;-64
2024/04/09 07:55:08;;;;;;;5.60;2.60;;;;;;;19.11;41.98;101454.73;107486;1254;107326;-63
2024/04/09 07:57:39;;;;;;;11.90;1.90;;;;;;;19.28;41.17;101448.56;106892;1254;799826;-61
2024/04/09 08:00:14;;;;;;;11.30;2.10;;;;;;;19.49;38.08;101445.33;107533;1254;100542;-62
2024/04/09 08:02:45;;;;;;;14.30;2.10;;;;;;;19.66;36.86;101446.24;107493;1254;102340;-62
2024/04/09 08:05:16;;;;;;;7.10;1.80;;;;;;;19.81;36.51;101441.01;107410;1251;114721;-62
2024/04/09 08:07:44;;;;;;;14.70;1.80;;;;;;;19.95;36.29;101437.25;107417;1254;107490;-62
2024/04/09 08:10:14;;;;;;;8.00;1.80;;;;;;;20.10;35.66;101439.80;107431;1251;108263;-62
2024/04/09 08:12:54;;;;;;;12.90;1.90;;;;;;;20.24;35.25;101430.53;107505;1256;100701;-63
2024/04/09 08:15:22;;;;;;;12.40;2.10;;;;;;;20.40;34.53;101436.09;107524;1255;100623;-63
2024/04/09 08:17:53;;;;;;;6.70;1.70;;;;;;;20.52;34.35;101432.88;107582;1252;114782;-62
2024/04/09 08:20:22;;;;;;;23.20;2.10;;;;;;;20.65;34.46;101430.41;107444;1254;108330;-62
2024/04/09 08:22:51;;;;;;;12.30;2.10;;;;;;;20.79;34.14;101429.58;107485;1254;108237;-62
2024/04/09 08:25:20;;;;;;;12.50;2.50;;;;;;;20.95;34.21;101425.66;107514;1254;100545;-67
2024/04/09 08:27:49;;;;;;;5.80;2.20;;;;;;;21.13;33.81;101421.95;107497;1254;100702;-62
2024/04/09 08:30:18;;;;;;;6.60;1.60;;;;;;;21.30;33.49;101417.36;107538;1253;115029;-62
2024/04/09 08:32:46;;;;;;;18.50;2.10;;;;;;;21.44;33.06;101414.49;107515;1256;107714;-63
2024/04/09 08:35:15;;;;;;;14.00;2.00;;;;;;;21.60;32.20;101416.59;107463;1251;108726;-62
2024/04/09 08:37:45;;;;;;;14.60;2.00;;;;;;;21.75;32.23;101416.71;107497;1256;100617;-63
2024/04/09 08:40:18;;;;;;;17.10;2.30;;;;;;;21.88;31.84;101410.31;107484;1251;100490;-62
2024/04/09 08:42:52;;;;;;;13.20;1.70;;;;;;;22.03;31.57;101405.31;107469;1251;114528;-62
2024/04/09 08:45:26;;;;;;;16.30;2.10;;;;;;;22.17;31.80;101401.48;107571;1255;108871;-63
2024/04/09 08:47:55;;;;;;;9.00;1.60;;;;;;;22.33;31.41;101400.12;107456;1255;108130;-62
2024/04/09 08:50:25;;;;;;;8.70;1.50;;;;;;;22.50;31.22;101397.08;107448;1254;100631;-61
2024/04/09 08:52:57;;;;;;;8.70;2.90;;;;;;;22.67;31.21;101395.11;107559;1255;100439;-61
2024/04/09 08:55:26;;;;;;;7.40;1.90;;;;;;;22.86;30.62;101399.44;107617;1251;113854;-62
2024/04/09 08:57:55;;;;;;;7.20;1.90;;;;;;;23.04;30.11;101401.42;107502;1251;108390;-65
2024/04/09 09:00:25;;;;;;;16.00;2.30;;;;;;;23.20;30.17;101392.70;107505;1251;109037;-65
2024/04/09 09:02:54;;;;;;;10.80;1.90;;;;;;;23.41;30.00;101398.02;107424;1251;100763;-64
2024/04/09 09:05:22;;;;;;;7.40;1.60;;;;;;;23.60;28.91;101399.41;107533;1251;101167;-66
2024/04/09 09:08:02;;;;;;;7.00;1.90;;;;;;;23.76;28.75;101396.61;107444;1251;114726;-65
2024/04/09 09:10:34;;;;;;;5.80;1.80;;;;;;;23.97;29.50;101392.73;107478;1251;106729;-65
2024/04/09 09:13:04;;;;;;;16.50;2.40;;;;;;;24.24;28.07;101400.18;107466;1251;108493;-66
2024/04/09 09:15:32;;;;;;;7.00;1.30;;;;;;;24.46;27.98;101396.27;107463;1256;100526;-66
2024/04/09 09:18:04;;;;;;;4.30;1.60;;;;;;;24.68;27.31;101387.10;107509;1251;102147;-65
2024/04/09 09:20:32;;;;;;;3.90;1.40;;;;;;;24.98;28.07;101388.05;107506;1251;114781;-65
2024/04/09 09:23:01;;;;;;;5.40;1.80;;;;;;;25.29;26.76;101387.94;107467;1256;108825;-65
2024/04/09 09:25:29;;;;;;;8.00;1.20;;;;;;;25.54;25.95;101386.27;107446;1251;108499;-64
2024/04/09 09:28:07;;;;;;;11.40;1.60;;;;;;;25.81;25.93;101387.73;107446;1256;100596;-64
2024/04/09 09:30:40;;;;;;;6.60;1.50;;;;;;;26.20;24.84;101389.86;107547;1256;100427;-65
2024/04/09 09:33:18;;;;;;;5.70;2.20;;;;;;;26.70;24.60;101385.45;107444;1254;114777;-64
2024/04/09 09:35:49;;;;;;;9.00;1.70;;;;;;;27.39;23.61;101385.71;107485;1254;108507;-66
2024/04/09 09:38:18;;;;;;;12.20;1.60;;;;;;;27.93;22.23;101389.21;107473;1255;107832;-65
2024/04/09 09:40:49;;;;;;;7.50;1.50;;;;;;;28.40;22.69;101379.35;107497;1257;101182;-64
2024/04/09 09:43:19;;;;;;;9.90;1.80;;;;;;;28.91;22.70;101377.89;107653;1257;100535;-64
2024/04/09 09:45:48;;;;;;;17.50;2.30;;;;;;;29.35;22.53;101373.09;107502;1253;114570;-65
2024/04/09 09:48:19;;;;;;;10.70;1.70;;;;;;;29.78;22.08;101368.54;107534;1256;108771;-65
2024/04/09 09:50:48;;;;;;;3.90;1.60;;;;;;;30.26;21.71;101363.73;107519;1256;108670;-64
2024/04/09 09:53:19;;;;;;;12.20;2.00;;;;;;;30.73;21.36;101367.85;107492;1254;100544;-64
2024/04/09 09:55:53;;;;;;;10.30;1.70;;;;;;;31.18;20.39;101377.26;107525;1256;100576;-65
2024/04/09 09:58:30;;;;;;;17.00;1.50;;;;;;;31.48;20.04;101378.19;107470;1256;115456;-65
2024/04/09 10:01:04;;;;;;;12.50;1.20;;;;;;;31.71;20.41;101368.08;107524;1255;108996;-65
2024/04/09 10:03:33;;;;;;;10.40;1.50;;;;;;;32.14;19.75;101372.17;107427;1255;109464;-65
2024/04/09 10:06:02;;;;;;;5.40;1.30;;;;;;;32.32;19.16;101367.25;107478;1256;100455;-66
2024/04/09 10:08:30;;;;;;;9.00;1.50;;;;;;;32.49;19.95;101356.86;107508;1254;100437;-66
2024/04/09 10:11:02;;;;;;;12.50;1.70;;;;;;;32.92;19.44;101359.88;107511;1256;114089;-64
2024/04/09 10:13:31;;;;;;;5.50;1.60;;;;;;;33.27;19.28;101354.13;107371;1254;108854;-66
2024/04/09 10:16:03;;;;;;;6.60;1.60;;;;;;;33.56;19.20;101357.88;107449;1254;106715;-64
2024/04/09 10:18:40;;;;;;;6.70;1.50;;;;;;;33.91;18.48;101355.63;107430;1254;100422;-65
2024/04/09 10:21:13;;;;;;;10.00;1.80;;;;;;;34.14;17.77;101350.23;107410;1256;100604;-65
2024/04/09 10:23:42;;;;;;;13.00;1.70;;;;;;;34.31;18.52;101339.09;107430;1256;114196;-65
2024/04/09 10:26:10;;;;;;;10.20;1.60;;;;;;;34.63;18.28;101344.26;107393;1257;108394;-66
2024/04/09 10:28:39;;;;;;;9.40;1.10;;;;;;;34.79;17.96;101341.95;107465;1255;108691;-66
2024/04/09 10:31:12;;;;;;;5.30;1.30;;;;;;;34.90;18.52;101341.91;107504;1254;100525;-65
2024/04/09 10:33:40;;;;;;;2.90;1.20;;;;;;;35.16;17.71;101342.11;107608;1256;100482;-65
2024/04/09 10:36:11;;;;;;;7.90;1.40;;;;;;;35.38;17.58;101333.70;107563;1254;115001;-66
2024/04/09 10:38:44;;;;;;;11.30;1.60;;;;;;;35.55;16.74;101336.61;107561;1254;106778;-66
2024/04/09 10:41:13;;;;;;;10.30;1.70;;;;;;;35.55;17.41;101332.08;107579;1256;107899;-65
2024/04/09 10:43:42;;;;;;;10.30;1.50;;;;;;;35.70;17.13;101335.98;107549;1255;100510;-65
2024/04/09 10:46:11;;;;;;;12.30;2.30;;;;;;;35.70;16.61;101332.06;107484;1255;101150;-65
2024/04/09 10:48:43;;;;;;;;;;;;;;;35.75;16.29;101328.39;107606;1254;114063;-65
2024/04/09 10:51:13;;;;;;;5.10;1.50;;;;;;;35.66;16.03;101332.78;107604;1254;108716;-66
2024/04/09 10:53:43;;;;;;;4.40;1.50;;;;;;;35.58;15.81;101326.30;107589;1254;108436;-65
2024/04/09 10:56:11;;;;;;;8.00;1.30;;;;;;;35.43;16.44;101322.39;107562;1253;100532;-65
2024/04/09 10:58:39;;;;;;;7.20;1.30;;;;;;;35.60;16.44;101314.52;107617;1256;100541;-66
2024/04/09 11:01:14;;;;;;;6.70;1.30;;;;;;;35.79;16.79;101309.14;107616;1256;114527;-65
2024/04/09 11:03:44;;;;;;;5.80;1.60;;;;;;;36.18;16.27;101306.09;107582;1255;106469;-65
2024/04/09 11:06:14;;;;;;;6.10;1.40;;;;;;;36.28;16.17;101311.58;107588;1251;107096;-64
2024/04/09 11:08:42;;;;;;;5.30;1.10;;;;;;;36.44;15.83;101306.66;107633;1256;101168;-66
2024/04/09 11:11:10;;;;;;;4.90;1.30;;;;;;;36.36;15.96;101306.39;107580;1254;101054;-66
2024/04/09 11:13:40;;;;;;;3.00;1.10;;;;;;;36.48;15.74;101304.91;107553;1254;113389;-66
2024/04/09 11:16:19;;;;;;;5.50;1.70;;;;;;;36.59;16.10;101300.02;107495;1254;107989;-65
2024/04/09 11:18:57;;;;;;;4.90;1.60;;;;;;;36.59;15.68;101299.58;107575;1256;108499;-65